sensor_id;sensor_type;location;lat;lon;timestamp;P1;durP1;ratioP1;P2;durP2;ratioP2
59854;SDS011;45732;52.850;6.896;2023-07-20T00:00:30;3.75;;;2.33;;
59854;SDS011;45732;52.850;6.896;2023-07-20T00:03:09;3.67;;;2.28;;
59854;SDS011;45732;52.850;6.896;2023-07-20T00:05:37;4.05;;;2.55;;
59854;SDS011;45732;52.850;6.896;2023-07-20T00:08:04;4.78;;;2.45;;
59854;SDS011;45732;52.850;6.896;2023-07-20T00:10:29;4.45;;;2.38;;
59854;SDS011;45732;52.850;6.896;2023-07-20T00:12:55;4.78;;;2.00;;
59854;SDS011;45732;52.850;6.896;2023-07-20T00:15:21;2.97;;;1.95;;
59854;SDS011;45732;52.850;6.896;2023-07-20T00:17:46;3.42;;;1.95;;
59854;SDS011;45732;52.850;6.896;2023-07-20T00:20:12;3.05;;;1.88;;
59854;SDS011;45732;52.850;6.896;2023-07-20T00:22:38;4.43;;;1.70;;
59854;SDS011;45732;52.850;6.896;2023-07-20T00:25:03;2.28;;;1.70;;
59854;SDS011;45732;52.850;6.896;2023-07-20T00:27:29;3.28;;;1.92;;
59854;SDS011;45732;52.850;6.896;2023-07-20T00:29:55;3.20;;;1.70;;
59854;SDS011;45732;52.850;6.896;2023-07-20T00:32:21;3.13;;;1.63;;
59854;SDS011;45732;52.850;6.896;2023-07-20T00:34:46;3.13;;;1.80;;
59854;SDS011;45732;52.850;6.896;2023-07-20T00:37:12;3.33;;;1.90;;
59854;SDS011;45732;52.850;6.896;2023-07-20T00:39:38;2.40;;;1.80;;
59854;SDS011;45732;52.850;6.896;2023-07-20T00:42:04;2.70;;;1.75;;
59854;SDS011;45732;52.850;6.896;2023-07-20T00:44:30;4.05;;;2.00;;
59854;SDS011;45732;52.850;6.896;2023-07-20T00:46:55;3.83;;;2.10;;
59854;SDS011;45732;52.850;6.896;2023-07-20T00:49:22;3.45;;;1.90;;
59854;SDS011;45732;52.850;6.896;2023-07-20T00:51:48;3.38;;;2.05;;
59854;SDS011;45732;52.850;6.896;2023-07-20T00:54:15;4.38;;;2.10;;
59854;SDS011;45732;52.850;6.896;2023-07-20T00:56:41;3.65;;;2.38;;
59854;SDS011;45732;52.850;6.896;2023-07-20T00:59:08;4.18;;;2.35;;
59854;SDS011;45732;52.850;6.896;2023-07-20T01:01:34;4.63;;;2.30;;
59854;SDS011;45732;52.850;6.896;2023-07-20T01:04:00;4.55;;;1.98;;
59854;SDS011;45732;52.850;6.896;2023-07-20T01:06:29;4.00;;;2.33;;
59854;SDS011;45732;52.850;6.896;2023-07-20T01:12:48;3.22;;;2.10;;
59854;SDS011;45732;52.850;6.896;2023-07-20T01:15:01;4.28;;;2.25;;
59854;SDS011;45732;52.850;6.896;2023-07-20T01:17:27;2.78;;;1.80;;
59854;SDS011;45732;52.850;6.896;2023-07-20T01:19:52;3.08;;;1.85;;
59854;SDS011;45732;52.850;6.896;2023-07-20T01:33:11;4.53;;;1.75;;
59854;SDS011;45732;52.850;6.896;2023-07-20T01:35:41;4.50;;;1.70;;
59854;SDS011;45732;52.850;6.896;2023-07-20T01:38:09;3.55;;;1.60;;
59854;SDS011;45732;52.850;6.896;2023-07-20T01:40:36;2.70;;;1.58;;
59854;SDS011;45732;52.850;6.896;2023-07-20T01:43:03;4.15;;;1.73;;
59854;SDS011;45732;52.850;6.896;2023-07-20T01:45:29;2.63;;;1.40;;
59854;SDS011;45732;52.850;6.896;2023-07-20T01:47:55;1.83;;;1.20;;
59854;SDS011;45732;52.850;6.896;2023-07-20T01:50:20;3.60;;;1.67;;
59854;SDS011;45732;52.850;6.896;2023-07-20T01:52:46;2.92;;;1.42;;
59854;SDS011;45732;52.850;6.896;2023-07-20T01:55:12;2.70;;;1.60;;
59854;SDS011;45732;52.850;6.896;2023-07-20T01:57:37;2.90;;;1.60;;
59854;SDS011;45732;52.850;6.896;2023-07-20T02:00:03;4.13;;;2.10;;
59854;SDS011;45732;52.850;6.896;2023-07-20T02:02:29;2.67;;;1.83;;
59854;SDS011;45732;52.850;6.896;2023-07-20T02:04:55;3.60;;;1.98;;
59854;SDS011;45732;52.850;6.896;2023-07-20T02:07:21;3.10;;;2.20;;
59854;SDS011;45732;52.850;6.896;2023-07-20T02:09:46;3.47;;;2.33;;
59854;SDS011;45732;52.850;6.896;2023-07-20T02:12:12;4.18;;;2.08;;
59854;SDS011;45732;52.850;6.896;2023-07-20T02:14:38;3.45;;;2.40;;
59854;SDS011;45732;52.850;6.896;2023-07-20T02:17:04;4.32;;;2.80;;
59854;SDS011;45732;52.850;6.896;2023-07-20T02:19:30;4.35;;;2.60;;
59854;SDS011;45732;52.850;6.896;2023-07-20T02:21:55;3.90;;;2.65;;
59854;SDS011;45732;52.850;6.896;2023-07-20T02:24:21;5.32;;;3.03;;
59854;SDS011;45732;52.850;6.896;2023-07-20T02:26:47;4.47;;;3.00;;
59854;SDS011;45732;52.850;6.896;2023-07-20T02:29:12;5.95;;;3.33;;
59854;SDS011;45732;52.850;6.896;2023-07-20T02:31:38;5.60;;;3.30;;
59854;SDS011;45732;52.850;6.896;2023-07-20T02:34:07;5.32;;;3.20;;
59854;SDS011;45732;52.850;6.896;2023-07-20T02:36:33;6.07;;;3.25;;
59854;SDS011;45732;52.850;6.896;2023-07-20T02:38:59;3.65;;;3.05;;
59854;SDS011;45732;52.850;6.896;2023-07-20T02:41:27;6.40;;;3.83;;
59854;SDS011;45732;52.850;6.896;2023-07-20T02:43:52;5.78;;;3.70;;
59854;SDS011;45732;52.850;6.896;2023-07-20T02:46:18;6.32;;;3.88;;
59854;SDS011;45732;52.850;6.896;2023-07-20T02:48:44;5.97;;;4.20;;
59854;SDS011;45732;52.850;6.896;2023-07-20T02:51:09;6.00;;;4.60;;
59854;SDS011;45732;52.850;6.896;2023-07-20T02:53:36;7.88;;;4.72;;
59854;SDS011;45732;52.850;6.896;2023-07-20T02:56:02;6.90;;;4.53;;
59854;SDS011;45732;52.850;6.896;2023-07-20T02:58:27;7.00;;;5.20;;
59854;SDS011;45732;52.850;6.896;2023-07-20T03:00:53;8.05;;;5.32;;
59854;SDS011;45732;52.850;6.896;2023-07-20T03:03:19;13.02;;;6.15;;
59854;SDS011;45732;52.850;6.896;2023-07-20T03:05:45;10.38;;;6.47;;
59854;SDS011;45732;52.850;6.896;2023-07-20T03:08:10;23.55;;;6.78;;
59854;SDS011;45732;52.850;6.896;2023-07-20T03:10:39;21.48;;;6.97;;
59854;SDS011;45732;52.850;6.896;2023-07-20T03:13:06;10.77;;;6.05;;
59854;SDS011;45732;52.850;6.896;2023-07-20T03:15:32;13.40;;;6.05;;
59854;SDS011;45732;52.850;6.896;2023-07-20T03:17:57;10.25;;;6.32;;
59854;SDS011;45732;52.850;6.896;2023-07-20T03:20:23;7.22;;;5.78;;
59854;SDS011;45732;52.850;6.896;2023-07-20T03:22:49;7.25;;;5.60;;
59854;SDS011;45732;52.850;6.896;2023-07-20T03:25:15;7.47;;;5.50;;
59854;SDS011;45732;52.850;6.896;2023-07-20T03:27:41;8.10;;;5.50;;
59854;SDS011;45732;52.850;6.896;2023-07-20T03:30:06;7.43;;;5.82;;
59854;SDS011;45732;52.850;6.896;2023-07-20T03:32:34;7.70;;;5.63;;
59854;SDS011;45732;52.850;6.896;2023-07-20T03:35:00;8.23;;;5.60;;
59854;SDS011;45732;52.850;6.896;2023-07-20T03:37:26;7.78;;;5.57;;
59854;SDS011;45732;52.850;6.896;2023-07-20T03:39:52;7.32;;;5.68;;
59854;SDS011;45732;52.850;6.896;2023-07-20T03:42:18;6.47;;;5.03;;
59854;SDS011;45732;52.850;6.896;2023-07-20T03:44:44;7.50;;;5.55;;
59854;SDS011;45732;52.850;6.896;2023-07-20T03:47:09;8.95;;;5.00;;
59854;SDS011;45732;52.850;6.896;2023-07-20T03:49:35;6.63;;;5.40;;
59854;SDS011;45732;52.850;6.896;2023-07-20T03:52:01;9.18;;;5.43;;
59854;SDS011;45732;52.850;6.896;2023-07-20T03:54:30;7.20;;;5.65;;
59854;SDS011;45732;52.850;6.896;2023-07-20T03:56:55;6.70;;;5.10;;
59854;SDS011;45732;52.850;6.896;2023-07-20T03:59:21;9.18;;;5.53;;
59854;SDS011;45732;52.850;6.896;2023-07-20T04:01:47;7.78;;;5.43;;
59854;SDS011;45732;52.850;6.896;2023-07-20T04:04:13;7.82;;;5.50;;
59854;SDS011;45732;52.850;6.896;2023-07-20T04:06:41;7.07;;;5.35;;
59854;SDS011;45732;52.850;6.896;2023-07-20T04:09:09;7.13;;;5.63;;
59854;SDS011;45732;52.850;6.896;2023-07-20T04:11:36;7.50;;;5.40;;
59854;SDS011;45732;52.850;6.896;2023-07-20T04:14:01;7.50;;;5.85;;
59854;SDS011;45732;52.850;6.896;2023-07-20T04:16:27;7.38;;;5.80;;
59854;SDS011;45732;52.850;6.896;2023-07-20T04:18:56;7.32;;;5.18;;
59854;SDS011;45732;52.850;6.896;2023-07-20T04:21:22;6.85;;;5.15;;
59854;SDS011;45732;52.850;6.896;2023-07-20T04:23:48;8.45;;;5.80;;
59854;SDS011;45732;52.850;6.896;2023-07-20T04:26:14;9.25;;;5.57;;
59854;SDS011;45732;52.850;6.896;2023-07-20T04:28:43;7.25;;;4.95;;
59854;SDS011;45732;52.850;6.896;2023-07-20T04:31:09;7.70;;;4.90;;
59854;SDS011;45732;52.850;6.896;2023-07-20T04:33:39;6.75;;;5.13;;
59854;SDS011;45732;52.850;6.896;2023-07-20T04:36:05;8.10;;;5.07;;
59854;SDS011;45732;52.850;6.896;2023-07-20T04:38:31;8.48;;;5.22;;
59854;SDS011;45732;52.850;6.896;2023-07-20T04:40:57;8.90;;;4.80;;
59854;SDS011;45732;52.850;6.896;2023-07-20T04:43:22;6.38;;;4.70;;
59854;SDS011;45732;52.850;6.896;2023-07-20T04:45:48;8.13;;;4.72;;
59854;SDS011;45732;52.850;6.896;2023-07-20T04:48:15;7.20;;;4.60;;
59854;SDS011;45732;52.850;6.896;2023-07-20T04:50:42;6.85;;;4.07;;
59854;SDS011;45732;52.850;6.896;2023-07-20T04:53:10;6.55;;;4.72;;
59854;SDS011;45732;52.850;6.896;2023-07-20T04:55:39;7.53;;;3.92;;
59854;SDS011;45732;52.850;6.896;2023-07-20T04:58:05;5.75;;;4.22;;
59854;SDS011;45732;52.850;6.896;2023-07-20T05:00:32;7.93;;;4.18;;
59854;SDS011;45732;52.850;6.896;2023-07-20T05:02:58;6.53;;;3.90;;
59854;SDS011;45732;52.850;6.896;2023-07-20T05:05:24;7.70;;;3.70;;
59854;SDS011;45732;52.850;6.896;2023-07-20T05:07:50;5.63;;;3.33;;
59854;SDS011;45732;52.850;6.896;2023-07-20T05:10:16;4.85;;;3.40;;
59854;SDS011;45732;52.850;6.896;2023-07-20T05:12:43;4.18;;;3.00;;
59854;SDS011;45732;52.850;6.896;2023-07-20T05:15:09;4.63;;;2.90;;
59854;SDS011;45732;52.850;6.896;2023-07-20T05:17:35;6.18;;;2.92;;
59854;SDS011;45732;52.850;6.896;2023-07-20T05:20:00;5.30;;;2.72;;
59854;SDS011;45732;52.850;6.896;2023-07-20T05:22:26;4.28;;;2.60;;
59854;SDS011;45732;52.850;6.896;2023-07-20T05:24:52;3.58;;;2.42;;
59854;SDS011;45732;52.850;6.896;2023-07-20T05:27:17;3.63;;;2.05;;
59854;SDS011;45732;52.850;6.896;2023-07-20T05:29:46;4.10;;;2.20;;
59854;SDS011;45732;52.850;6.896;2023-07-20T05:32:12;4.85;;;2.10;;
59854;SDS011;45732;52.850;6.896;2023-07-20T05:34:39;5.68;;;2.08;;
59854;SDS011;45732;52.850;6.896;2023-07-20T05:37:05;4.35;;;1.77;;
59854;SDS011;45732;52.850;6.896;2023-07-20T05:39:34;3.83;;;1.58;;
59854;SDS011;45732;52.850;6.896;2023-07-20T05:42:00;3.33;;;1.52;;
59854;SDS011;45732;52.850;6.896;2023-07-20T05:44:25;3.53;;;1.40;;
59854;SDS011;45732;52.850;6.896;2023-07-20T05:46:51;4.05;;;1.60;;
59854;SDS011;45732;52.850;6.896;2023-07-20T05:49:17;3.47;;;1.40;;
59854;SDS011;45732;52.850;6.896;2023-07-20T05:51:43;3.05;;;1.40;;
59854;SDS011;45732;52.850;6.896;2023-07-20T05:54:08;4.20;;;1.58;;
59854;SDS011;45732;52.850;6.896;2023-07-20T05:56:34;3.35;;;1.30;;
59854;SDS011;45732;52.850;6.896;2023-07-20T05:59:00;2.47;;;1.20;;
59854;SDS011;45732;52.850;6.896;2023-07-20T06:01:25;2.75;;;1.15;;
59854;SDS011;45732;52.850;6.896;2023-07-20T06:03:53;4.25;;;1.55;;
59854;SDS011;45732;52.850;6.896;2023-07-20T06:06:19;2.33;;;1.15;;
59854;SDS011;45732;52.850;6.896;2023-07-20T06:08:44;2.08;;;1.20;;
59854;SDS011;45732;52.850;6.896;2023-07-20T06:11:10;3.10;;;1.13;;
59854;SDS011;45732;52.850;6.896;2023-07-20T06:13:36;2.67;;;1.10;;
59854;SDS011;45732;52.850;6.896;2023-07-20T06:16:02;3.88;;;1.50;;
59854;SDS011;45732;52.850;6.896;2023-07-20T06:18:28;6.00;;;1.30;;
59854;SDS011;45732;52.850;6.896;2023-07-20T06:20:55;2.00;;;1.10;;
59854;SDS011;45732;52.850;6.896;2023-07-20T06:23:21;2.55;;;1.15;;
59854;SDS011;45732;52.850;6.896;2023-07-20T06:25:47;5.70;;;1.20;;
59854;SDS011;45732;52.850;6.896;2023-07-20T06:28:13;5.22;;;1.35;;
59854;SDS011;45732;52.850;6.896;2023-07-20T06:30:39;3.00;;;1.30;;
59854;SDS011;45732;52.850;6.896;2023-07-20T06:33:05;2.88;;;1.38;;
59854;SDS011;45732;52.850;6.896;2023-07-20T06:35:32;3.40;;;1.10;;
59854;SDS011;45732;52.850;6.896;2023-07-20T06:37:59;2.63;;;1.05;;
59854;SDS011;45732;52.850;6.896;2023-07-20T06:40:25;3.25;;;1.05;;
59854;SDS011;45732;52.850;6.896;2023-07-20T06:42:51;2.10;;;1.00;;
59854;SDS011;45732;52.850;6.896;2023-07-20T06:45:17;1.42;;;0.80;;
59854;SDS011;45732;52.850;6.896;2023-07-20T06:47:43;3.50;;;1.17;;
59854;SDS011;45732;52.850;6.896;2023-07-20T06:50:09;4.38;;;1.27;;
59854;SDS011;45732;52.850;6.896;2023-07-20T06:52:36;1.95;;;0.93;;
59854;SDS011;45732;52.850;6.896;2023-07-20T06:55:02;4.88;;;1.20;;
59854;SDS011;45732;52.850;6.896;2023-07-20T06:57:28;6.50;;;1.65;;
59854;SDS011;45732;52.850;6.896;2023-07-20T06:59:54;3.33;;;1.25;;
59854;SDS011;45732;52.850;6.896;2023-07-20T07:02:19;4.82;;;1.40;;
59854;SDS011;45732;52.850;6.896;2023-07-20T07:04:45;4.20;;;1.25;;
59854;SDS011;45732;52.850;6.896;2023-07-20T07:07:13;2.42;;;1.02;;
59854;SDS011;45732;52.850;6.896;2023-07-20T07:09:39;2.70;;;1.10;;
59854;SDS011;45732;52.850;6.896;2023-07-20T07:12:06;4.82;;;1.25;;
59854;SDS011;45732;52.850;6.896;2023-07-20T07:14:32;5.47;;;1.13;;
59854;SDS011;45732;52.850;6.896;2023-07-20T07:16:58;6.22;;;1.23;;
59854;SDS011;45732;52.850;6.896;2023-07-20T07:19:23;1.92;;;1.00;;
59854;SDS011;45732;52.850;6.896;2023-07-20T07:21:49;4.97;;;1.13;;
59854;SDS011;45732;52.850;6.896;2023-07-20T07:24:16;4.65;;;1.25;;
59854;SDS011;45732;52.850;6.896;2023-07-20T07:26:42;3.85;;;0.98;;
59854;SDS011;45732;52.850;6.896;2023-07-20T07:29:07;3.13;;;1.00;;
59854;SDS011;45732;52.850;6.896;2023-07-20T07:31:36;2.08;;;0.80;;
59854;SDS011;45732;52.850;6.896;2023-07-20T07:34:03;3.63;;;1.10;;
59854;SDS011;45732;52.850;6.896;2023-07-20T07:36:30;4.40;;;1.20;;
59854;SDS011;45732;52.850;6.896;2023-07-20T07:38:56;4.63;;;1.23;;
59854;SDS011;45732;52.850;6.896;2023-07-20T07:41:22;3.10;;;0.95;;
59854;SDS011;45732;52.850;6.896;2023-07-20T07:43:48;3.55;;;1.13;;
59854;SDS011;45732;52.850;6.896;2023-07-20T07:46:13;2.65;;;1.08;;
59854;SDS011;45732;52.850;6.896;2023-07-20T07:48:39;4.10;;;1.02;;
59854;SDS011;45732;52.850;6.896;2023-07-20T07:51:05;3.53;;;1.05;;
59854;SDS011;45732;52.850;6.896;2023-07-20T07:53:31;3.15;;;1.00;;
59854;SDS011;45732;52.850;6.896;2023-07-20T07:55:57;3.58;;;1.10;;
59854;SDS011;45732;52.850;6.896;2023-07-20T07:58:23;3.05;;;0.90;;
59854;SDS011;45732;52.850;6.896;2023-07-20T08:00:49;6.15;;;1.40;;
59854;SDS011;45732;52.850;6.896;2023-07-20T08:03:15;3.55;;;1.40;;
59854;SDS011;45732;52.850;6.896;2023-07-20T08:05:41;6.15;;;1.17;;
59854;SDS011;45732;52.850;6.896;2023-07-20T08:08:07;3.55;;;1.10;;
59854;SDS011;45732;52.850;6.896;2023-07-20T08:10:33;2.35;;;0.90;;
59854;SDS011;45732;52.850;6.896;2023-07-20T08:12:59;3.50;;;1.00;;
59854;SDS011;45732;52.850;6.896;2023-07-20T08:15:25;4.63;;;1.00;;
59854;SDS011;45732;52.850;6.896;2023-07-20T08:17:51;2.65;;;1.08;;
59854;SDS011;45732;52.850;6.896;2023-07-20T08:20:17;2.70;;;0.98;;
59854;SDS011;45732;52.850;6.896;2023-07-20T08:22:43;3.88;;;0.90;;
59854;SDS011;45732;52.850;6.896;2023-07-20T08:25:09;2.58;;;0.95;;
59854;SDS011;45732;52.850;6.896;2023-07-20T08:27:35;5.30;;;1.40;;
59854;SDS011;45732;52.850;6.896;2023-07-20T08:30:01;5.00;;;1.00;;
59854;SDS011;45732;52.850;6.896;2023-07-20T08:32:29;3.40;;;1.00;;
59854;SDS011;45732;52.850;6.896;2023-07-20T08:34:55;4.78;;;0.90;;
59854;SDS011;45732;52.850;6.896;2023-07-20T08:37:21;2.92;;;1.05;;
59854;SDS011;45732;52.850;6.896;2023-07-20T08:39:47;4.38;;;1.00;;
59854;SDS011;45732;52.850;6.896;2023-07-20T08:42:13;6.40;;;1.10;;
59854;SDS011;45732;52.850;6.896;2023-07-20T08:44:40;3.03;;;1.02;;
59854;SDS011;45732;52.850;6.896;2023-07-20T08:47:08;4.00;;;1.15;;
59854;SDS011;45732;52.850;6.896;2023-07-20T08:49:35;3.83;;;0.93;;
59854;SDS011;45732;52.850;6.896;2023-07-20T08:52:01;2.90;;;1.00;;
59854;SDS011;45732;52.850;6.896;2023-07-20T08:54:29;3.35;;;1.00;;
59854;SDS011;45732;52.850;6.896;2023-07-20T08:57:02;4.75;;;0.98;;
59854;SDS011;45732;52.850;6.896;2023-07-20T08:59:29;2.15;;;1.00;;
59854;SDS011;45732;52.850;6.896;2023-07-20T09:01:59;4.43;;;1.10;;
59854;SDS011;45732;52.850;6.896;2023-07-20T09:04:25;1.95;;;0.82;;
59854;SDS011;45732;52.850;6.896;2023-07-20T09:06:51;6.50;;;1.10;;
59854;SDS011;45732;52.850;6.896;2023-07-20T09:09:17;3.70;;;1.20;;
59854;SDS011;45732;52.850;6.896;2023-07-20T09:11:43;4.13;;;1.08;;
59854;SDS011;45732;52.850;6.896;2023-07-20T09:14:13;3.20;;;1.05;;
59854;SDS011;45732;52.850;6.896;2023-07-20T09:16:54;2.58;;;1.10;;
59854;SDS011;45732;52.850;6.896;2023-07-20T09:19:20;3.58;;;1.00;;
59854;SDS011;45732;52.850;6.896;2023-07-20T09:21:47;2.70;;;0.90;;
59854;SDS011;45732;52.850;6.896;2023-07-20T09:24:14;2.60;;;1.10;;
59854;SDS011;45732;52.850;6.896;2023-07-20T09:26:41;1.70;;;0.80;;
59854;SDS011;45732;52.850;6.896;2023-07-20T09:29:10;3.13;;;0.90;;
59854;SDS011;45732;52.850;6.896;2023-07-20T09:31:36;4.85;;;1.02;;
59854;SDS011;45732;52.850;6.896;2023-07-20T09:34:03;4.90;;;0.95;;
59854;SDS011;45732;52.850;6.896;2023-07-20T09:36:31;2.17;;;1.00;;
59854;SDS011;45732;52.850;6.896;2023-07-20T09:39:03;2.72;;;0.90;;
59854;SDS011;45732;52.850;6.896;2023-07-20T09:41:29;1.58;;;0.70;;
59854;SDS011;45732;52.850;6.896;2023-07-20T09:44:04;1.70;;;0.80;;
59854;SDS011;45732;52.850;6.896;2023-07-20T09:46:40;3.53;;;0.90;;
59854;SDS011;45732;52.850;6.896;2023-07-20T09:49:11;1.58;;;0.93;;
59854;SDS011;45732;52.850;6.896;2023-07-20T09:51:37;2.45;;;0.77;;
59854;SDS011;45732;52.850;6.896;2023-07-20T09:54:03;3.17;;;1.00;;
59854;SDS011;45732;52.850;6.896;2023-07-20T09:56:29;2.75;;;0.85;;
59854;SDS011;45732;52.850;6.896;2023-07-20T09:58:56;2.67;;;1.02;;
59854;SDS011;45732;52.850;6.896;2023-07-20T10:01:22;4.00;;;0.98;;
59854;SDS011;45732;52.850;6.896;2023-07-20T10:03:48;3.22;;;1.02;;
59854;SDS011;45732;52.850;6.896;2023-07-20T10:06:20;2.90;;;1.00;;
59854;SDS011;45732;52.850;6.896;2023-07-20T10:08:49;3.05;;;1.20;;
59854;SDS011;45732;52.850;6.896;2023-07-20T10:11:18;1.27;;;0.90;;
59854;SDS011;45732;52.850;6.896;2023-07-20T10:13:46;2.40;;;1.10;;
59854;SDS011;45732;52.850;6.896;2023-07-20T10:16:20;3.53;;;1.10;;
59854;SDS011;45732;52.850;6.896;2023-07-20T10:21:19;3.50;;;1.05;;
59854;SDS011;45732;52.850;6.896;2023-07-20T10:23:48;3.03;;;1.00;;
59854;SDS011;45732;52.850;6.896;2023-07-20T10:26:14;2.25;;;0.80;;
59854;SDS011;45732;52.850;6.896;2023-07-20T10:28:40;4.57;;;1.02;;
59854;SDS011;45732;52.850;6.896;2023-07-20T10:31:10;2.33;;;0.90;;
59854;SDS011;45732;52.850;6.896;2023-07-20T10:33:38;3.33;;;1.05;;
59854;SDS011;45732;52.850;6.896;2023-07-20T10:36:05;3.17;;;1.02;;
59854;SDS011;45732;52.850;6.896;2023-07-20T10:41:21;3.22;;;0.90;;
59854;SDS011;45732;52.850;6.896;2023-07-20T10:44:01;3.72;;;1.40;;
59854;SDS011;45732;52.850;6.896;2023-07-20T10:49:07;1.60;;;0.93;;
59854;SDS011;45732;52.850;6.896;2023-07-20T10:56:43;3.37;;;1.00;;
59854;SDS011;45732;52.850;6.896;2023-07-20T11:01:56;4.35;;;1.10;;
59854;SDS011;45732;52.850;6.896;2023-07-20T11:04:37;2.20;;;1.00;;
59854;SDS011;45732;52.850;6.896;2023-07-20T11:07:07;2.70;;;0.90;;
59854;SDS011;45732;52.850;6.896;2023-07-20T11:09:34;2.38;;;1.00;;
59854;SDS011;45732;52.850;6.896;2023-07-20T11:12:10;3.25;;;1.00;;
59854;SDS011;45732;52.850;6.896;2023-07-20T11:14:42;4.93;;;1.27;;
59854;SDS011;45732;52.850;6.896;2023-07-20T11:17:22;3.13;;;0.90;;
59854;SDS011;45732;52.850;6.896;2023-07-20T11:20:01;2.33;;;0.95;;
59854;SDS011;45732;52.850;6.896;2023-07-20T11:22:28;2.90;;;1.00;;
59854;SDS011;45732;52.850;6.896;2023-07-20T11:24:58;3.08;;;1.00;;
59854;SDS011;45732;52.850;6.896;2023-07-20T11:27:24;3.03;;;1.10;;
59854;SDS011;45732;52.850;6.896;2023-07-20T11:29:50;3.25;;;0.93;;
59854;SDS011;45732;52.850;6.896;2023-07-20T11:32:22;4.00;;;1.00;;
59854;SDS011;45732;52.850;6.896;2023-07-20T11:34:49;2.95;;;1.00;;
59854;SDS011;45732;52.850;6.896;2023-07-20T11:37:15;1.60;;;0.93;;
59854;SDS011;45732;52.850;6.896;2023-07-20T11:39:41;3.63;;;1.30;;
59854;SDS011;45732;52.850;6.896;2023-07-20T11:42:07;3.65;;;0.98;;
59854;SDS011;45732;52.850;6.896;2023-07-20T11:44:33;3.53;;;1.10;;
59854;SDS011;45732;52.850;6.896;2023-07-20T11:47:03;3.83;;;1.20;;
59854;SDS011;45732;52.850;6.896;2023-07-20T11:49:37;3.60;;;1.10;;
59854;SDS011;45732;52.850;6.896;2023-07-20T11:52:05;2.70;;;1.10;;
59854;SDS011;45732;52.850;6.896;2023-07-20T11:54:32;3.05;;;1.10;;
59854;SDS011;45732;52.850;6.896;2023-07-20T11:57:05;3.90;;;0.85;;
59854;SDS011;45732;52.850;6.896;2023-07-20T11:59:31;4.63;;;1.00;;
59854;SDS011;45732;52.850;6.896;2023-07-20T12:02:06;3.97;;;1.10;;
59854;SDS011;45732;52.850;6.896;2023-07-20T12:04:32;3.00;;;1.02;;
59854;SDS011;45732;52.850;6.896;2023-07-20T12:06:58;4.80;;;1.10;;
59854;SDS011;45732;52.850;6.896;2023-07-20T12:09:24;2.95;;;1.10;;
59854;SDS011;45732;52.850;6.896;2023-07-20T12:11:50;3.72;;;1.30;;
59854;SDS011;45732;52.850;6.896;2023-07-20T12:14:16;3.80;;;1.25;;
59854;SDS011;45732;52.850;6.896;2023-07-20T12:16:41;2.50;;;1.10;;
59854;SDS011;45732;52.850;6.896;2023-07-20T12:19:08;3.13;;;1.00;;
59854;SDS011;45732;52.850;6.896;2023-07-20T12:21:35;3.42;;;1.17;;
59854;SDS011;45732;52.850;6.896;2023-07-20T12:24:02;3.28;;;1.00;;
59854;SDS011;45732;52.850;6.896;2023-07-20T12:26:29;4.13;;;1.10;;
59854;SDS011;45732;52.850;6.896;2023-07-20T12:28:56;2.65;;;1.00;;
59854;SDS011;45732;52.850;6.896;2023-07-20T12:31:23;4.18;;;1.23;;
59854;SDS011;45732;52.850;6.896;2023-07-20T12:33:51;2.25;;;1.00;;
59854;SDS011;45732;52.850;6.896;2023-07-20T12:36:18;3.10;;;0.88;;
59854;SDS011;45732;52.850;6.896;2023-07-20T12:38:44;2.50;;;0.98;;
59854;SDS011;45732;52.850;6.896;2023-07-20T12:41:11;3.03;;;1.30;;
59854;SDS011;45732;52.850;6.896;2023-07-20T12:43:43;2.50;;;1.00;;
59854;SDS011;45732;52.850;6.896;2023-07-20T12:46:10;3.80;;;1.20;;
59854;SDS011;45732;52.850;6.896;2023-07-20T12:48:37;2.92;;;1.27;;
59854;SDS011;45732;52.850;6.896;2023-07-20T12:51:05;2.97;;;1.20;;
59854;SDS011;45732;52.850;6.896;2023-07-20T12:53:31;3.70;;;1.27;;
59854;SDS011;45732;52.850;6.896;2023-07-20T12:55:57;2.75;;;1.23;;
59854;SDS011;45732;52.850;6.896;2023-07-20T12:58:23;5.25;;;1.15;;
59854;SDS011;45732;52.850;6.896;2023-07-20T13:00:49;4.20;;;1.40;;
59854;SDS011;45732;52.850;6.896;2023-07-20T13:03:15;8.23;;;1.50;;
59854;SDS011;45732;52.850;6.896;2023-07-20T13:05:43;2.80;;;1.30;;
59854;SDS011;45732;52.850;6.896;2023-07-20T13:08:09;3.15;;;1.27;;
59854;SDS011;45732;52.850;6.896;2023-07-20T13:10:35;3.78;;;1.20;;
59854;SDS011;45732;52.850;6.896;2023-07-20T13:13:01;5.22;;;1.48;;
59854;SDS011;45732;52.850;6.896;2023-07-20T13:15:30;4.45;;;1.23;;
59854;SDS011;45732;52.850;6.896;2023-07-20T13:17:57;2.95;;;1.30;;
59854;SDS011;45732;52.850;6.896;2023-07-20T13:20:24;3.55;;;1.23;;
59854;SDS011;45732;52.850;6.896;2023-07-20T13:22:50;4.95;;;1.48;;
59854;SDS011;45732;52.850;6.896;2023-07-20T13:25:16;6.18;;;1.58;;
59854;SDS011;45732;52.850;6.896;2023-07-20T13:27:42;2.80;;;1.20;;
59854;SDS011;45732;52.850;6.896;2023-07-20T13:30:08;4.22;;;1.25;;
59854;SDS011;45732;52.850;6.896;2023-07-20T13:32:38;3.60;;;1.23;;
59854;SDS011;45732;52.850;6.896;2023-07-20T13:35:04;4.90;;;1.55;;
59854;SDS011;45732;52.850;6.896;2023-07-20T13:37:30;6.63;;;1.75;;
59854;SDS011;45732;52.850;6.896;2023-07-20T13:39:56;2.13;;;1.15;;
59854;SDS011;45732;52.850;6.896;2023-07-20T13:42:22;3.90;;;1.10;;
59854;SDS011;45732;52.850;6.896;2023-07-20T13:44:48;3.53;;;1.77;;
59854;SDS011;45732;52.850;6.896;2023-07-20T13:47:14;3.20;;;1.30;;
59854;SDS011;45732;52.850;6.896;2023-07-20T13:49:39;3.90;;;1.40;;
59854;SDS011;45732;52.850;6.896;2023-07-20T13:52:05;2.85;;;1.20;;
59854;SDS011;45732;52.850;6.896;2023-07-20T13:54:31;3.28;;;1.67;;
59854;SDS011;45732;52.850;6.896;2023-07-20T13:56:57;2.10;;;1.08;;
59854;SDS011;45732;52.850;6.896;2023-07-20T13:59:23;5.40;;;1.50;;
59854;SDS011;45732;52.850;6.896;2023-07-20T14:01:49;2.97;;;1.17;;
59854;SDS011;45732;52.850;6.896;2023-07-20T14:04:14;3.85;;;1.20;;
59854;SDS011;45732;52.850;6.896;2023-07-20T14:06:40;3.88;;;1.65;;
59854;SDS011;45732;52.850;6.896;2023-07-20T14:09:06;4.22;;;1.40;;
59854;SDS011;45732;52.850;6.896;2023-07-20T14:11:32;9.30;;;1.83;;
59854;SDS011;45732;52.850;6.896;2023-07-20T14:13:58;5.45;;;1.70;;
59854;SDS011;45732;52.850;6.896;2023-07-20T14:16:24;5.00;;;1.90;;
59854;SDS011;45732;52.850;6.896;2023-07-20T14:18:50;7.80;;;1.90;;
59854;SDS011;45732;52.850;6.896;2023-07-20T14:21:16;4.63;;;1.90;;
59854;SDS011;45732;52.850;6.896;2023-07-20T14:23:50;5.80;;;2.30;;
59854;SDS011;45732;52.850;6.896;2023-07-20T14:26:17;10.27;;;2.55;;
59854;SDS011;45732;52.850;6.896;2023-07-20T14:28:42;6.43;;;2.28;;
59854;SDS011;45732;52.850;6.896;2023-07-20T14:31:08;4.97;;;2.30;;
59854;SDS011;45732;52.850;6.896;2023-07-20T14:33:34;7.05;;;2.47;;
59854;SDS011;45732;52.850;6.896;2023-07-20T14:36:00;7.90;;;2.25;;
59854;SDS011;45732;52.850;6.896;2023-07-20T14:38:27;4.82;;;2.20;;
59854;SDS011;45732;52.850;6.896;2023-07-20T14:40:53;4.53;;;2.30;;
59854;SDS011;45732;52.850;6.896;2023-07-20T14:43:19;4.75;;;2.42;;
59854;SDS011;45732;52.850;6.896;2023-07-20T14:45:45;4.20;;;1.92;;
59854;SDS011;45732;52.850;6.896;2023-07-20T14:48:12;10.23;;;2.40;;
59854;SDS011;45732;52.850;6.896;2023-07-20T14:50:38;4.78;;;1.70;;
59854;SDS011;45732;52.850;6.896;2023-07-20T14:53:04;4.47;;;2.00;;
59854;SDS011;45732;52.850;6.896;2023-07-20T14:55:29;3.72;;;1.80;;
59854;SDS011;45732;52.850;6.896;2023-07-20T14:57:55;5.78;;;2.00;;
59854;SDS011;45732;52.850;6.896;2023-07-20T15:00:21;4.82;;;2.10;;
59854;SDS011;45732;52.850;6.896;2023-07-20T15:02:47;4.45;;;1.90;;
59854;SDS011;45732;52.850;6.896;2023-07-20T15:05:17;4.13;;;1.95;;
59854;SDS011;45732;52.850;6.896;2023-07-20T15:07:46;5.60;;;1.65;;
59854;SDS011;45732;52.850;6.896;2023-07-20T15:10:12;3.95;;;1.80;;
59854;SDS011;45732;52.850;6.896;2023-07-20T15:12:37;5.82;;;1.83;;
59854;SDS011;45732;52.850;6.896;2023-07-20T15:15:04;5.55;;;2.00;;